Data for 08/16/2007

Time Sea-Level Adjusted Pressure Absolute Pressure Temperature Relative Humidity Dew Point   
(mb) (inHg) (mb) (inHg) (C) (F) (%) (C) (F)
00:05 1020 30.12 849 25.07 21.1 69.9 31 3.7 38.6
00:10 1020 30.12 849 25.07 21 69.8 32 3.7 38.6
00:15 1020 30.12 849 25.07 20.9 69.6 32 3.7 38.7
00:20 1020 30.12 849 25.07 20.8 69.5 32 3.7 38.7
00:25 1020 30.12 849 25.07 20.8 69.5 32 3.8 38.8
00:30 1020 30.12 849 25.07 20.8 69.5 32 3.7 38.7
00:35 1020 30.12 849 25.07 20.8 69.4 33 3.9 39
00:40 1020 30.12 849 25.07 20.6 69 33 3.9 39
00:45 1020 30.12 849 25.07 20.5 68.8 33 3.9 39
00:50 1020 30.12 849 25.07 20.3 68.5 33 3.8 38.9
00:55 1020 30.12 849 25.07 20.4 68.7 33 3.9 39.1
01:00 1020 30.12 849 25.07 20.3 68.6 34 4 39.1
01:05 1020 30.12 849 25.07 20.2 68.3 34 4 39.2
01:10 1020 30.12 849 25.07 20.1 68.3 34 4 39.2
01:15 1020 30.12 849 25.07 20.2 68.3 34 4 39.1
01:20 1020 30.12 849 25.07 20.1 68.2 34 4 39.3
01:25 1020 30.12 849 25.07 20 67.9 35 4 39.2
01:30 1020 30.12 849 25.07 19.8 67.7 35 4 39.2
01:35 1020 30.12 849 25.07 19.8 67.6 35 3.9 39.1
01:40 1020 30.12 849 25.07 19.8 67.6 35 4 39.2
01:45 1020 30.12 849 25.07 19.7 67.4 35 3.9 39
01:50 1020 30.12 849 25.07 19.7 67.4 35 4 39.3
01:55 1020 30.12 849 25.07 19.6 67.4 35 3.9 39.1
02:00 1020 30.12 849 25.07 19.5 67 36 4 39.1
02:05 1020 30.12 849 25.07 19.4 66.9 35 3.9 39
02:10 1020 30.12 849 25.07 19.3 66.8 35 3.7 38.7
02:15 1020 30.12 849 25.07 19.3 66.7 35 3.7 38.7
02:20 1020 30.12 849 25.07 19.2 66.6 35 3.7 38.6
02:25 1020 30.12 849 25.07 19.2 66.6 35 3.7 38.6
02:30 1020 30.12 849 25.07 19.1 66.5 35 3.6 38.5
02:35 1020 30.12 849 25.07 19.1 66.4 35 3.6 38.5
02:40 1020 30.12 849 25.07 19 66.2 36 3.8 38.9
02:45 1020 30.12 849 25.07 18.8 65.8 36 3.7 38.7
02:50 1020 30.12 849 25.07 18.8 65.8 36 3.4 38.1
02:55 1020 30.12 849 25.07 18.7 65.7 36 3.5 38.3
03:00 1020 30.12 849 25.07 18.7 65.7 36 3.4 38.1
03:05 1020 30.12 849 25.07 18.7 65.7 36 3.3 38
03:10 1020 30.12 849 25.07 18.7 65.6 36 3.5 38.3
03:15 1020 30.12 849 25.07 18.6 65.6 36 3.3 38
03:20 1019 30.09 849 25.07 18.8 65.8 35 3.1 37.7
03:25 1020 30.12 849 25.07 18.7 65.6 36 3.3 37.9
03:30 1019 30.09 849 25.07 18.6 65.5 35 3.1 37.6
03:35 1020 30.12 849 25.07 18.6 65.5 35 3.1 37.6
03:40 1020 30.12 849 25.07 18.6 65.5 35 3 37.5
03:45 1020 30.12 849 25.07 18.6 65.4 35 3.1 37.6
03:50 1020 30.12 849 25.07 18.4 65.1 36 3.1 37.5
03:55 1020 30.12 849 25.07 18.4 65.1 36 3 37.5
04:00 1020 30.12 849 25.07 18.4 65.1 36 3 37.5
04:05 1020 30.12 849 25.07 18.3 64.9 36 3.1 37.7
04:10 1020 30.12 849 25.07 18.3 64.9 36 3.1 37.5
04:15 1020 30.12 849 25.07 18.3 64.9 36 3 37.3
04:20 1019 30.09 849 25.07 18.3 64.9 36 3 37.5
04:25 1019 30.09 849 25.07 18.2 64.8 36 3 37.3
04:30 1019 30.09 849 25.07 18.2 64.8 36 3 37.5
04:35 1019 30.09 849 25.07 18.2 64.8 36 2.9 37.2
04:40 1019 30.09 849 25.07 18.2 64.8 35 2.8 37
04:45 1019 30.09 849 25.07 18.2 64.8 35 2.7 36.9
04:50 1019 30.09 849 25.07 18.2 64.8 35 2.6 36.8
04:55 1019 30.09 849 25.07 18.3 64.9 35 2.6 36.8
05:00 1019 30.09 849 25.07 18.2 64.7 35 2.6 36.8
05:05 1019 30.09 849 25.07 18.1 64.6 35 2.6 36.7
05:10 1019 30.09 849 25.07 18 64.4 35 2.6 36.6
05:15 1019 30.09 849 25.07 17.9 64.2 36 2.7 36.8
05:20 1019 30.09 849 25.07 17.8 64 36 2.7 36.9
05:25 1020 30.12 849 25.07 17.8 64 36 2.7 36.9
05:30 1019 30.09 849 25.07 17.6 63.8 37 2.9 37.2
05:35 1020 30.12 849 25.07 17.6 63.6 37 2.9 37.2
05:40 1020 30.12 849 25.07 17.5 63.5 37 3 37.3
05:45 1019 30.09 849 25.07 17.5 63.4 38 3 37.4
05:50 1019 30.09 849 25.07 17.4 63.4 38 3 37.4
05:55 1019 30.09 849 25.07 17.4 63.3 38 3.1 37.6
06:00 1019 30.09 849 25.07 17.3 63.2 39 3.2 37.7
06:05 1019 30.09 849 25.07 17.2 63 38 3 37.5
06:10 1019 30.09 849 25.07 17.3 63.1 38 3.1 37.6
06:15 1019 30.09 849 25.07 17.2 63 39 3.1 37.6
06:20 1019 30.09 849 25.07 17.2 63 39 3.1 37.6
06:25 1020 30.12 849 25.07 17.2 63 38 3 37.3
06:30 1020 30.12 849 25.07 17.1 62.9 39 3.4 38
06:35 1020 30.12 849 25.07 17 62.7 39 3 37.3
06:40 1020 30.12 849 25.07 16.9 62.4 40 3.3 37.9
06:45 1020 30.12 849 25.07 16.7 62 41 3.4 38.1
06:50 1020 30.12 849 25.07 16.4 61.5 42 3.4 38.1
06:55 1020 30.12 849 25.07 16.2 61.2 42 3.4 38.2
07:00 1020 30.12 849 25.07 16.3 61.3 42 3.4 38.1
07:05 1020 30.12 849 25.07 16.3 61.3 42 3.5 38.2
07:10 1020 30.12 849 25.07 16.2 61.1 42 3.5 38.3
07:15 1020 30.12 849 25.07 16.1 61.1 42 3.4 38.2
07:20 1020 30.12 849 25.07 16.2 61.2 42 3.4 38.2
07:25 1020 30.12 849 25.07 16.4 61.6 41 3.4 38.1
07:30 1020 30.12 849 25.07 16.6 61.8 41 3.5 38.4
07:35 1020 30.12 849 25.07 16.7 62 41 3.4 38.1
07:40 1020 30.12 849 25.07 16.9 62.3 41 3.6 38.4
07:45 1020 30.12 849 25.07 16.8 62.2 41 3.6 38.5
07:50 1020 30.12 849 25.07 16.8 62.3 41 3.6 38.5
07:55 1020 30.12 849 25.07 17 62.6 40 3.6 38.4
08:00 1020 30.12 849 25.07 17.3 63.2 40 3.6 38.6
08:05 1020 30.12 849 25.07 17.6 63.8 38 3.3 37.9
08:10 1020 30.12 849 25.07 17.9 64.1 38 3.4 38.2
08:15 1020 30.12 849 25.07 18 64.5 37 3.3 37.9
08:20 1020 30.12 849 25.07 18.3 64.9 37 3.5 38.2
08:25 1020 30.12 849 25.07 18.4 65.2 37 3.8 38.8
08:30 1020 30.12 849 25.07 18.5 65.4 36 3.4 38.1
08:35 1020 30.12 849 25.07 18.6 65.5 35 3.1 37.5
08:40 1020 30.12 849 25.07 18.9 66 34 2.9 37.3
08:45 1020 30.12 849 25.07 19.2 66.5 35 3.3 37.9
08:50 1020 30.12 849 25.07 19.3 66.7 35 3.5 38.3
08:55 1020 30.12 849 25.07 19.2 66.6 35 3.3 38
09:00 1020 30.12 849 25.07 19.3 66.7 35 3.4 38.1
09:05 1020 30.12 849 25.07 19.5 67.1 34 3.4 38.2
09:10 1020 30.12 849 25.07 19.9 67.8 32 2.9 37.1
09:15 1020 30.12 849 25.07 20.3 68.5 32 3 37.5
09:20 1020 30.12 849 25.07 20.6 69.2 30 2.7 36.8
09:25 1020 30.12 849 25.07 20.9 69.6 30 2.7 36.9
09:30 1020 30.12 849 25.07 21.4 70.5 28 2.5 36.4
09:35 1020 30.12 849 25.07 21.5 70.7 28 2.4 36.2
09:40 1020 30.12 849 25.07 21.7 71 27 2.2 36
09:45 1020 30.12 849 25.07 21.9 71.4 27 2.4 36.2
09:50 1020 30.12 849 25.07 22.2 72 26 2 35.7
09:55 1020 30.12 849 25.07 22.7 72.9 26 2.2 36
10:00 1020 30.12 849 25.07 23 73.3 31 5.4 41.6
10:05 1020 30.12 849 25.07 22.4 72.4 33 5.5 41.9
10:10 1020 30.12 849 25.07 22.5 72.5 33 5.5 42
10:15 1020 30.12 849 25.07 22.7 72.8 32 5.5 42
10:20 1020 30.12 849 25.07 22.8 73.1 32 5.4 41.7
10:25 1020 30.12 849 25.07 22.5 72.6 32 5.1 41.1
10:30 1020 30.12 849 25.07 22.8 73.1 31 5.1 41.2
10:35 1019 30.09 849 25.07 23.1 73.5 32 5.8 42.5
10:40 1019 30.09 849 25.07 24 75.3 30 5.7 42.2
10:45 1019 30.09 849 25.07 23.3 73.9 32 5.8 42.4
10:50 1019 30.09 848 25.04 23.9 74.9 29 5.1 41.2
10:55 1019 30.09 848 25.04 24.5 76.1 29 5.5 41.9
11:00 1019 30.09 848 25.04 23.8 74.9 30 5.3 41.5
11:05 1019 30.09 848 25.04 23.9 75 30 5.7 42.2
11:10 1019 30.09 848 25.04 24.5 76.1 28 5.1 41.2
11:15 1019 30.09 848 25.04 25.2 77.4 27 5.2 41.3
11:20 1019 30.09 848 25.04 25.2 77.4 27 5.3 41.6
11:25 1019 30.09 848 25.04 25.6 78.1 27 5.6 42.1
11:30 1019 30.09 848 25.04 26.1 79 27 5.9 42.6
11:35 1019 30.09 848 25.04 26.3 79.3 27 6.1 43
11:40 1019 30.09 848 25.04 25.2 77.4 29 6.1 43
11:45 1019 30.09 848 25.04 26.4 79.4 26 5.6 42.1
11:50 1019 30.09 848 25.04 26.7 80.1 24 5 41
11:55 1019 30.09 848 25.04 26.4 79.5 25 5.3 41.6
12:00 1019 30.09 848 25.04 26 78.8 25 5 41
12:05 1019 30.09 848 25.04 27.2 80.9 24 5.4 41.7
12:10 1019 30.09 848 25.04 26.8 80.3 26 6 42.8
12:15 1019 30.09 848 25.04 27.5 81.4 24 5.2 41.4
12:20 1019 30.09 848 25.04 27.7 81.8 25 6.4 43.5
12:25 1019 30.09 848 25.04 27.6 81.6 24 5.5 42
12:30 1019 30.09 848 25.04 28.6 83.5 22 5.4 41.7
12:35 1019 30.09 848 25.04 28.7 83.7 23 5.7 42.2
12:40 1018 30.06 848 25.04 29 84.1 22 5.7 42.2
12:45 1018 30.06 848 25.04 29.3 84.8 22 5.5 41.9
12:50 1018 30.06 847 25.01 28.4 83.1 22 5.1 41.1
12:55 1018 30.06 847 25.01 28.1 82.5 23 5.1 41.2
13:00 1018 30.06 847 25.01 28.4 83.1 22 5.1 41.1
13:05 1018 30.06 847 25.01 29.1 84.3 21 4.7 40.4
13:10 1018 30.06 847 25.01 29.5 85 22 5.8 42.4
13:15 1018 30.06 847 25.01 29.3 84.7 21 5.3 41.5
13:20 1018 30.06 847 25.01 29.5 85.2 21 5.5 41.8
13:25 1018 30.06 847 25.01 30 85.9 21 5.9 42.6
13:30 1018 30.06 847 25.01 29.2 84.5 21 5.2 41.4
13:35 1018 30.06 847 25.01 29 84.1 22 5.5 42
13:40 1018 30.06 847 25.01 29.2 84.6 23 6.3 43.3
13:45 1018 30.06 847 25.01 28.6 83.5 24 6.2 43.2
13:50 1018 30.06 847 25.01 29 84.2 22 5.3 41.5
13:55 1018 30.06 847 25.01 29 84.1 23 5.8 42.4
14:00 1018 30.06 847 25.01 28.9 84 22 5.4 41.8
14:05 1018 30.06 847 25.01 29.2 84.5 23 6.5 43.7
14:10 1018 30.06 847 25.01 29.4 84.9 22 6 42.8
14:15 1018 30.06 847 25.01 29.2 84.6 23 6.4 43.6
14:20 1018 30.06 847 25.01 29.1 84.5 23 6.3 43.3
14:25 1018 30.06 847 25.01 29 84.3 24 7 44.7
14:30 1018 30.06 847 25.01 28.7 83.7 24 6.4 43.5
14:35 1018 30.06 847 25.01 28.2 82.7 24 6.2 43.2
14:40 1018 30.06 847 25.01 27.8 82.1 27 7.4 45.2
14:45 1018 30.06 847 25.01 27.1 80.7 29 7.9 46.2
14:50 1019 30.09 848 25.04 26.5 79.7 31 8.5 47.3
14:55 1019 30.09 848 25.04 26.3 79.3 30 7.4 45.3
15:00 1019 30.09 848 25.04 26.2 79.1 33 9 48.2
15:05 1019 30.09 848 25.04 26 78.7 32 8.4 47.2
15:10 1019 30.09 848 25.04 25.7 78.2 34 9 48.2
15:15 1019 30.09 848 25.04 25.7 78.3 32 8.2 46.7
15:20 1019 30.09 848 25.04 26.4 79.6 20 1.8 35.2
15:25 1018 30.06 847 25.01 27.5 81.5 20 2.9 37.2
15:30 1018 30.06 848 25.04 27.1 80.7 22 3.6 38.4
15:35 1019 30.09 848 25.04 26.9 80.5 22 3.5 38.2
15:40 1018 30.06 848 25.04 27 80.6 22 3.6 38.5
15:45 1019 30.09 848 25.04 26.9 80.4 27 6.3 43.4
15:50 1019 30.09 848 25.04 26.8 80.2 24 4.9 40.8
15:55 1019 30.09 848 25.04 26.3 79.3 26 5.6 42.1
16:00 1019 30.09 848 25.04 26.1 79 25 4.8 40.6
16:05 1019 30.09 848 25.04 26.1 78.9 27 5.8 42.5
16:10 1018 30.06 848 25.04 26.1 78.9 26 5.4 41.8
16:15 1018 30.06 847 25.01 26.3 79.3 25 4.8 40.6
16:20 1018 30.06 847 25.01 27.5 81.4 16 0.1 32.1
16:25 1018 30.06 847 25.01 27.4 81.2 26 6.4 43.6
16:30 1018 30.06 847 25.01 26.5 79.7 25 5.2 41.4
16:35 1018 30.06 847 25.01 26.6 79.8 24 4.9 40.8
16:40 1018 30.06 847 25.01 27.1 80.8 24 5 41
16:45 1018 30.06 847 25.01 28.1 82.6 22 4.8 40.6
16:50 1017 30.03 847 25.01 28.5 83.3 22 4.9 40.9
16:55 1017 30.03 847 25.01 28.5 83.3 23 5.5 41.8
17:00 1017 30.03 847 25.01 28.4 83.1 21 4.5 40.2
17:05 1017 30.03 847 25.01 28.4 83.2 22 4.9 40.8
17:10 1018 30.06 847 25.01 28.5 83.2 22 5.1 41.2
17:15 1018 30.06 847 25.01 28.4 83 23 5.6 42
17:20 1017 30.03 847 25.01 28.4 83.1 23 5.3 41.6
17:25 1017 30.03 847 25.01 28.4 83.1 23 5.5 42
17:30 1017 30.03 846 24.98 28.4 83 22 5.1 41.1
17:35 1017 30.03 846 24.98 28.5 83.2 23 5.6 42
17:40 1017 30.03 846 24.98 28.7 83.6 23 6 42.7
17:45 1017 30.03 846 24.98 28.7 83.7 22 5.1 41.2
17:50 1017 30.03 846 24.98 28.7 83.7 23 5.8 42.4
17:55 1017 30.03 846 24.98 28.5 83.2 23 5.8 42.4
18:00 1017 30.03 846 24.98 28.3 82.9 23 5.7 42.2
18:05 1017 30.03 846 24.98 28.2 82.7 23 5.1 41.2
18:10 1017 30.03 846 24.98 28.2 82.8 22 4.5 40.2
18:15 1017 30.03 846 24.98 28.1 82.7 22 5 41
18:20 1017 30.03 846 24.98 28 82.4 23 5.1 41.2
18:25 1017 30.03 846 24.98 28 82.4 23 5 41
18:30 1017 30.03 846 24.98 28 82.4 21 4.1 39.3
18:35 1017 30.03 846 24.98 27.9 82.2 21 4.1 39.4
18:40 1017 30.03 846 24.98 27.8 82.1 22 4.2 39.6
18:45 1017 30.03 846 24.98 27.7 81.9 21 3.8 38.9
18:50 1017 30.03 846 24.98 27.7 81.9 21 3.8 38.8
18:55 1017 30.03 846 24.98 27.7 81.9 22 4.1 39.3
19:00 1017 30.03 847 25.01 27.6 81.7 22 4.2 39.5
19:05 1018 30.06 847 25.01 27.6 81.6 24 5.2 41.4
19:10 1018 30.06 847 25.01 26.8 80.2 27 6.8 44.2
19:15 1018 30.06 847 25.01 26.1 79 28 6.4 43.6
19:20 1018 30.06 848 25.04 26 78.8 31 7.8 46.1
19:25 1018 30.06 848 25.04 25.5 77.8 30 6.7 44.1
19:30 1019 30.09 848 25.04 25 76.9 35 8.7 47.7
19:35 1019 30.09 848 25.04 23.9 75 39 9.4 49
19:40 1019 30.09 848 25.04 22.8 73.1 45 10.5 50.8
19:45 1019 30.09 848 25.04 21.9 71.3 48 10.5 50.9
19:50 1019 30.09 849 25.07 21.4 70.6 49 10.6 51
19:55 1020 30.12 849 25.07 21.4 70.5 49 10.3 50.5
20:00 1020 30.12 849 25.07 21.2 70.2 51 10.7 51.2
20:05 1020 30.12 849 25.07 20.8 69.4 51 10.5 50.9
20:10 1020 30.12 849 25.07 20.6 69.1 52 10.6 51.1
20:15 1019 30.09 849 25.07 20.4 68.7 53 10.7 51.3
20:20 1019 30.09 849 25.07 20.4 68.6 53 10.7 51.2
20:25 1019 30.09 849 25.07 20.4 68.7 51 10.2 50.3
20:30 1019 30.09 849 25.07 20.6 69 53 10.7 51.2
20:35 1019 30.09 849 25.07 20.3 68.6 54 10.7 51.3
20:40 1020 30.12 849 25.07 20 67.9 56 10.9 51.6
20:45 1020 30.12 849 25.07 19.8 67.6 55 10.6 51.1
20:50 1020 30.12 849 25.07 19.8 67.7 54 10.5 50.9
20:55 1020 30.12 849 25.07 20 67.9 55 10.8 51.4
21:00 1020 30.12 849 25.07 19.9 67.8 57 11.2 52.1
21:05 1020 30.12 850 25.1 20 68 57 11.3 52.3
21:10 1021 30.15 850 25.1 20.1 68.3 55 10.9 51.6
21:15 1021 30.15 850 25.1 20.1 68.3 57 11.5 52.7
21:20 1021 30.15 850 25.1 19.8 67.6 59 11.6 52.8
21:25 1021 30.15 850 25.1 19.5 67.2 62 12.1 53.8
21:30 1021 30.15 850 25.1 19.1 66.3 65 12.4 54.3
21:35 1021 30.15 850 25.1 18.7 65.6 66 12.2 54
21:40 1021 30.15 850 25.1 18.7 65.6 65 12 53.7
21:45 1021 30.15 850 25.1 18.8 65.8 64 12 53.6
21:50 1021 30.15 851 25.13 18.8 65.8 66 12.4 54.3
21:55 1021 30.15 851 25.13 18.8 65.8 68 12.8 55
22:00 1021 30.15 851 25.13 18.2 64.8 74 13.7 56.6
22:05 1021 30.15 851 25.13 17.9 64.3 70 12.4 54.4
22:10 1021 30.15 851 25.13 18 64.4 70 12.6 54.6
22:15 1021 30.15 851 25.13 18 64.3 70 12.4 54.3
22:20 1021 30.15 851 25.13 18.3 65 68 12.3 54.1
22:25 1021 30.15 851 25.13 18.2 64.8 77 14.2 57.6
22:30 1021 30.15 851 25.13 17.2 63 79 13.6 56.5
22:35 1021 30.15 850 25.1 17 62.5 77 12.9 55.2
22:40 1021 30.15 850 25.1 17.2 63 74 12.5 54.6
22:45 1021 30.15 851 25.13 17.7 63.9 73 13 55.3
22:50 1021 30.15 850 25.1 17.6 63.8 74 13.1 55.5
22:55 1021 30.15 850 25.1 17.3 63.1 75 12.9 55.2
23:00 1021 30.15 850 25.1 17.3 63.1 77 13.2 55.7
23:05 1021 30.15 850 25.1 17.4 63.3 73 12.5 54.5
23:10 1021 30.15 850 25.1 17.6 63.7 75 13.3 55.9
23:15 1021 30.15 850 25.1 17.6 63.8 68 11.6 52.9
23:20 1021 30.15 850 25.1 17.9 64.2 70 12.3 54.2
23:25 1021 30.15 850 25.1 17.7 63.9 71 12.5 54.5
23:30 1020 30.12 850 25.1 17.6 63.7 71 12.4 54.3
23:35 1020 30.12 849 25.07 17.6 63.6 68 11.6 52.9
23:40 1020 30.12 849 25.07 18 64.4 64 11.1 52
23:45 1020 30.12 849 25.07 18.3 65 63 11.3 52.3
23:50 1020 30.12 849 25.07 18.4 65.1 63 11.3 52.3
23:55 1020 30.12 849 25.07 18.3 65 63 11.2 52.2
24:00 1019 30.09 849 25.07 18.5 65.3 60 10.8 51.4